sensor_id;sensor_type;location;lat;lon;timestamp;pressure;altitude;pressure_sealevel;temperature;humidity
61128;BME280;47013;42.664;23.242;2024-01-27T00:01:15;94417.06;;;3.27;66.92
61128;BME280;47013;42.664;23.242;2024-01-27T00:03:40;94395.78;;;3.18;67.10
61128;BME280;47013;42.664;23.242;2024-01-27T00:06:06;94398.38;;;3.14;66.97
61128;BME280;47013;42.664;23.242;2024-01-27T00:08:31;94400.09;;;3.22;67.38
61128;BME280;47013;42.664;23.242;2024-01-27T00:10:56;94392.16;;;3.26;67.60
61128;BME280;47013;42.664;23.242;2024-01-27T00:13:22;94408.47;;;3.21;67.69
61128;BME280;47013;42.664;23.242;2024-01-27T00:15:47;94396.28;;;3.23;66.32
61128;BME280;47013;42.664;23.242;2024-01-27T00:18:14;94385.56;;;3.23;66.37
61128;BME280;47013;42.664;23.242;2024-01-27T00:20:40;94390.56;;;3.25;66.76
61128;BME280;47013;42.664;23.242;2024-01-27T00:23:05;94379.34;;;3.19;65.84
61128;BME280;47013;42.664;23.242;2024-01-27T00:25:31;94379.00;;;3.21;65.43
61128;BME280;47013;42.664;23.242;2024-01-27T00:27:56;94375.72;;;3.28;64.79
61128;BME280;47013;42.664;23.242;2024-01-27T00:30:22;94392.59;;;3.28;64.70
61128;BME280;47013;42.664;23.242;2024-01-27T00:32:47;94377.88;;;3.22;65.79
61128;BME280;47013;42.664;23.242;2024-01-27T00:35:12;94374.78;;;3.20;65.58
61128;BME280;47013;42.664;23.242;2024-01-27T00:37:40;94374.84;;;3.23;66.38
61128;BME280;47013;42.664;23.242;2024-01-27T00:40:12;94378.84;;;3.30;65.85
61128;BME280;47013;42.664;23.242;2024-01-27T00:42:38;94390.06;;;3.35;65.61
61128;BME280;47013;42.664;23.242;2024-01-27T00:45:04;94398.19;;;3.39;65.60
61128;BME280;47013;42.664;23.242;2024-01-27T00:47:30;94392.47;;;3.40;65.42
61128;BME280;47013;42.664;23.242;2024-01-27T00:49:55;94400.00;;;3.35;65.03
61128;BME280;47013;42.664;23.242;2024-01-27T00:52:21;94389.69;;;3.37;64.73
61128;BME280;47013;42.664;23.242;2024-01-27T00:54:47;94388.41;;;3.46;64.69
61128;BME280;47013;42.664;23.242;2024-01-27T00:57:12;94395.38;;;3.51;64.56
61128;BME280;47013;42.664;23.242;2024-01-27T00:59:37;94394.00;;;3.57;63.79
61128;BME280;47013;42.664;23.242;2024-01-27T01:02:04;94382.84;;;3.55;63.55
61128;BME280;47013;42.664;23.242;2024-01-27T01:04:30;94388.47;;;3.50;66.08
61128;BME280;47013;42.664;23.242;2024-01-27T01:06:55;94373.72;;;3.40;65.45
61128;BME280;47013;42.664;23.242;2024-01-27T01:09:24;94375.69;;;3.43;67.90
61128;BME280;47013;42.664;23.242;2024-01-27T01:11:49;94378.56;;;3.35;66.42
61128;BME280;47013;42.664;23.242;2024-01-27T01:14:14;94380.22;;;3.39;65.31
61128;BME280;47013;42.664;23.242;2024-01-27T01:16:40;94377.84;;;3.38;64.87
61128;BME280;47013;42.664;23.242;2024-01-27T01:19:08;94387.03;;;3.37;66.45
61128;BME280;47013;42.664;23.242;2024-01-27T01:21:34;94386.66;;;3.38;65.19
61128;BME280;47013;42.664;23.242;2024-01-27T01:23:59;94382.78;;;3.36;63.19
61128;BME280;47013;42.664;23.242;2024-01-27T01:26:24;94378.72;;;3.42;62.48
61128;BME280;47013;42.664;23.242;2024-01-27T01:28:50;94370.59;;;3.38;63.44
61128;BME280;47013;42.664;23.242;2024-01-27T01:31:16;94369.63;;;3.46;61.94
61128;BME280;47013;42.664;23.242;2024-01-27T01:33:42;94357.94;;;3.54;61.52
61128;BME280;47013;42.664;23.242;2024-01-27T01:36:11;94347.72;;;3.60;60.02
61128;BME280;47013;42.664;23.242;2024-01-27T01:38:36;94355.56;;;3.69;63.26
61128;BME280;47013;42.664;23.242;2024-01-27T01:41:02;94354.78;;;3.68;65.60
61128;BME280;47013;42.664;23.242;2024-01-27T01:43:27;94357.31;;;3.61;65.04
61128;BME280;47013;42.664;23.242;2024-01-27T01:45:53;94347.47;;;3.49;65.51
61128;BME280;47013;42.664;23.242;2024-01-27T01:48:21;94342.34;;;3.60;66.80
61128;BME280;47013;42.664;23.242;2024-01-27T01:50:46;94344.53;;;3.54;68.36
61128;BME280;47013;42.664;23.242;2024-01-27T01:53:13;94342.94;;;3.34;67.21
61128;BME280;47013;42.664;23.242;2024-01-27T01:55:39;94345.25;;;3.36;68.26
61128;BME280;47013;42.664;23.242;2024-01-27T01:58:05;94363.59;;;3.34;70.05
61128;BME280;47013;42.664;23.242;2024-01-27T02:00:31;94349.78;;;3.32;70.06
61128;BME280;47013;42.664;23.242;2024-01-27T02:02:57;94353.88;;;3.25;70.72
61128;BME280;47013;42.664;23.242;2024-01-27T02:05:22;94342.19;;;3.18;69.12
61128;BME280;47013;42.664;23.242;2024-01-27T02:07:47;94334.88;;;3.15;68.69
61128;BME280;47013;42.664;23.242;2024-01-27T02:10:14;94319.28;;;3.20;65.69
61128;BME280;47013;42.664;23.242;2024-01-27T02:12:41;94313.38;;;3.31;66.62
61128;BME280;47013;42.664;23.242;2024-01-27T02:15:11;94317.34;;;3.37;64.18
61128;BME280;47013;42.664;23.242;2024-01-27T02:17:38;94323.16;;;3.39;64.66
61128;BME280;47013;42.664;23.242;2024-01-27T02:20:05;94328.28;;;3.47;65.47
61128;BME280;47013;42.664;23.242;2024-01-27T02:22:32;94327.88;;;3.45;65.38
61128;BME280;47013;42.664;23.242;2024-01-27T02:24:57;94342.78;;;3.62;57.97
61128;BME280;47013;42.664;23.242;2024-01-27T02:27:22;94322.19;;;3.66;62.58
61128;BME280;47013;42.664;23.242;2024-01-27T02:29:48;94322.56;;;3.65;64.33
61128;BME280;47013;42.664;23.242;2024-01-27T02:32:13;94311.94;;;3.52;63.34
61128;BME280;47013;42.664;23.242;2024-01-27T02:34:38;94315.84;;;3.55;63.66
61128;BME280;47013;42.664;23.242;2024-01-27T02:37:04;94313.94;;;3.55;64.54
61128;BME280;47013;42.664;23.242;2024-01-27T02:39:31;94306.59;;;3.52;61.83
61128;BME280;47013;42.664;23.242;2024-01-27T02:41:56;94285.97;;;3.57;61.14
61128;BME280;47013;42.664;23.242;2024-01-27T02:44:21;94309.16;;;3.65;59.58
61128;BME280;47013;42.664;23.242;2024-01-27T02:46:47;94315.00;;;3.70;61.68
61128;BME280;47013;42.664;23.242;2024-01-27T02:49:12;94301.28;;;3.75;60.99
61128;BME280;47013;42.664;23.242;2024-01-27T02:51:37;94297.84;;;3.75;58.50
61128;BME280;47013;42.664;23.242;2024-01-27T02:54:03;94306.25;;;3.93;58.67
61128;BME280;47013;42.664;23.242;2024-01-27T02:56:28;94301.66;;;3.93;61.89
61128;BME280;47013;42.664;23.242;2024-01-27T02:58:54;94319.00;;;3.99;62.02
61128;BME280;47013;42.664;23.242;2024-01-27T03:01:19;94317.41;;;3.95;63.74
61128;BME280;47013;42.664;23.242;2024-01-27T03:03:45;94326.91;;;3.73;63.44
61128;BME280;47013;42.664;23.242;2024-01-27T03:06:11;94330.94;;;3.82;64.68
61128;BME280;47013;42.664;23.242;2024-01-27T03:08:36;94335.59;;;3.85;63.89
61128;BME280;47013;42.664;23.242;2024-01-27T03:11:02;94343.44;;;3.94;64.42
61128;BME280;47013;42.664;23.242;2024-01-27T03:13:27;94348.16;;;4.01;66.52
61128;BME280;47013;42.664;23.242;2024-01-27T03:15:53;94355.31;;;4.12;64.47
61128;BME280;47013;42.664;23.242;2024-01-27T03:18:18;94350.88;;;4.20;63.68
61128;BME280;47013;42.664;23.242;2024-01-27T03:20:43;94351.13;;;4.15;63.64
61128;BME280;47013;42.664;23.242;2024-01-27T03:23:09;94341.16;;;4.15;66.65
61128;BME280;47013;42.664;23.242;2024-01-27T03:25:35;94346.28;;;4.21;68.83
61128;BME280;47013;42.664;23.242;2024-01-27T03:28:00;94333.13;;;3.96;68.15
61128;BME280;47013;42.664;23.242;2024-01-27T03:30:26;94336.03;;;3.88;69.14
61128;BME280;47013;42.664;23.242;2024-01-27T03:32:57;94341.63;;;3.79;69.92
61128;BME280;47013;42.664;23.242;2024-01-27T03:35:22;94341.16;;;3.77;72.17
61128;BME280;47013;42.664;23.242;2024-01-27T03:37:48;94333.28;;;3.84;73.87
61128;BME280;47013;42.664;23.242;2024-01-27T03:40:14;94321.78;;;3.83;75.13
61128;BME280;47013;42.664;23.242;2024-01-27T03:42:39;94321.06;;;3.67;77.49
61128;BME280;47013;42.664;23.242;2024-01-27T03:45:05;94319.78;;;3.61;76.27
61128;BME280;47013;42.664;23.242;2024-01-27T03:47:30;94302.78;;;3.53;77.78
61128;BME280;47013;42.664;23.242;2024-01-27T03:49:56;94313.28;;;3.43;77.37
61128;BME280;47013;42.664;23.242;2024-01-27T03:52:21;94309.50;;;3.28;78.09
61128;BME280;47013;42.664;23.242;2024-01-27T03:54:46;94307.38;;;3.18;79.88
61128;BME280;47013;42.664;23.242;2024-01-27T03:57:12;94294.09;;;2.90;82.35
61128;BME280;47013;42.664;23.242;2024-01-27T03:59:40;94308.00;;;2.80;85.27
61128;BME280;47013;42.664;23.242;2024-01-27T04:02:06;94305.34;;;2.48;86.28
61128;BME280;47013;42.664;23.242;2024-01-27T04:04:31;94302.47;;;2.57;87.79
61128;BME280;47013;42.664;23.242;2024-01-27T04:06:56;94308.63;;;2.42;88.79
61128;BME280;47013;42.664;23.242;2024-01-27T04:09:22;94304.59;;;2.20;90.52
61128;BME280;47013;42.664;23.242;2024-01-27T04:11:48;94308.47;;;2.06;92.55
61128;BME280;47013;42.664;23.242;2024-01-27T04:14:13;94308.97;;;1.96;93.78
61128;BME280;47013;42.664;23.242;2024-01-27T04:16:38;94294.56;;;2.01;94.58
61128;BME280;47013;42.664;23.242;2024-01-27T04:19:04;94305.72;;;1.75;96.82
61128;BME280;47013;42.664;23.242;2024-01-27T04:21:30;94283.28;;;1.80;97.65
61128;BME280;47013;42.664;23.242;2024-01-27T04:23:55;94295.69;;;2.00;98.23
61128;BME280;47013;42.664;23.242;2024-01-27T04:26:21;94301.72;;;1.97;97.06
61128;BME280;47013;42.664;23.242;2024-01-27T04:28:46;94297.59;;;1.99;98.71
61128;BME280;47013;42.664;23.242;2024-01-27T04:31:12;94301.16;;;2.19;97.81
61128;BME280;47013;42.664;23.242;2024-01-27T04:33:37;94305.91;;;2.26;97.36
61128;BME280;47013;42.664;23.242;2024-01-27T04:36:03;94309.53;;;2.33;98.26
61128;BME280;47013;42.664;23.242;2024-01-27T04:38:28;94308.34;;;2.31;97.28
61128;BME280;47013;42.664;23.242;2024-01-27T04:40:53;94308.00;;;2.32;98.46
61128;BME280;47013;42.664;23.242;2024-01-27T04:43:19;94293.34;;;2.42;97.61
61128;BME280;47013;42.664;23.242;2024-01-27T04:45:47;94296.00;;;2.42;98.29
61128;BME280;47013;42.664;23.242;2024-01-27T04:48:14;94296.69;;;2.55;99.88
61128;BME280;47013;42.664;23.242;2024-01-27T04:50:39;94297.81;;;2.54;98.01
61128;BME280;47013;42.664;23.242;2024-01-27T04:53:05;94304.31;;;2.53;99.35
61128;BME280;47013;42.664;23.242;2024-01-27T04:55:30;94294.81;;;2.55;100.00
61128;BME280;47013;42.664;23.242;2024-01-27T04:57:55;94303.38;;;2.61;100.00
61128;BME280;47013;42.664;23.242;2024-01-27T05:00:23;94301.69;;;2.72;100.00
61128;BME280;47013;42.664;23.242;2024-01-27T05:02:50;94310.69;;;2.80;100.00
61128;BME280;47013;42.664;23.242;2024-01-27T05:05:15;94317.59;;;2.65;100.00
61128;BME280;47013;42.664;23.242;2024-01-27T05:07:41;94315.44;;;2.71;100.00
61128;BME280;47013;42.664;23.242;2024-01-27T05:10:09;94318.66;;;2.76;100.00
61128;BME280;47013;42.664;23.242;2024-01-27T05:12:35;94314.16;;;2.80;100.00
61128;BME280;47013;42.664;23.242;2024-01-27T05:15:00;94318.44;;;2.85;100.00
61128;BME280;47013;42.664;23.242;2024-01-27T05:17:26;94325.88;;;2.91;100.00
61128;BME280;47013;42.664;23.242;2024-01-27T05:19:51;94327.09;;;2.94;100.00
61128;BME280;47013;42.664;23.242;2024-01-27T05:22:18;94318.47;;;3.01;100.00
61128;BME280;47013;42.664;23.242;2024-01-27T05:24:43;94316.38;;;2.94;100.00
61128;BME280;47013;42.664;23.242;2024-01-27T05:27:09;94328.66;;;2.95;100.00
61128;BME280;47013;42.664;23.242;2024-01-27T05:29:37;94321.03;;;2.97;100.00
61128;BME280;47013;42.664;23.242;2024-01-27T05:32:02;94318.97;;;3.06;100.00
61128;BME280;47013;42.664;23.242;2024-01-27T05:34:28;94318.09;;;3.18;100.00
61128;BME280;47013;42.664;23.242;2024-01-27T05:36:53;94327.38;;;3.24;100.00
61128;BME280;47013;42.664;23.242;2024-01-27T05:39:18;94326.44;;;3.32;100.00
61128;BME280;47013;42.664;23.242;2024-01-27T05:41:44;94331.50;;;3.37;100.00
61128;BME280;47013;42.664;23.242;2024-01-27T05:44:09;94339.44;;;3.49;100.00
61128;BME280;47013;42.664;23.242;2024-01-27T05:46:35;94333.03;;;3.54;100.00
61128;BME280;47013;42.664;23.242;2024-01-27T05:49:00;94341.53;;;3.75;100.00
61128;BME280;47013;42.664;23.242;2024-01-27T05:51:29;94337.50;;;3.66;100.00
61128;BME280;47013;42.664;23.242;2024-01-27T05:53:55;94333.88;;;3.58;100.00
61128;BME280;47013;42.664;23.242;2024-01-27T05:56:21;94344.19;;;3.56;100.00
61128;BME280;47013;42.664;23.242;2024-01-27T05:58:47;94343.50;;;3.59;100.00
61128;BME280;47013;42.664;23.242;2024-01-27T06:01:13;94344.91;;;3.53;100.00
61128;BME280;47013;42.664;23.242;2024-01-27T06:03:41;94339.47;;;3.88;100.00
61128;BME280;47013;42.664;23.242;2024-01-27T06:06:07;94347.19;;;3.90;100.00
61128;BME280;47013;42.664;23.242;2024-01-27T06:08:32;94366.31;;;3.88;100.00
61128;BME280;47013;42.664;23.242;2024-01-27T06:10:57;94361.81;;;3.92;100.00
61128;BME280;47013;42.664;23.242;2024-01-27T06:13:23;94370.34;;;3.98;100.00
61128;BME280;47013;42.664;23.242;2024-01-27T06:15:48;94361.16;;;3.99;100.00
61128;BME280;47013;42.664;23.242;2024-01-27T06:18:13;94386.50;;;4.01;100.00
61128;BME280;47013;42.664;23.242;2024-01-27T06:20:39;94390.41;;;4.04;100.00
61128;BME280;47013;42.664;23.242;2024-01-27T06:23:05;94375.56;;;4.10;100.00
61128;BME280;47013;42.664;23.242;2024-01-27T06:25:32;94382.66;;;4.18;100.00
61128;BME280;47013;42.664;23.242;2024-01-27T06:27:57;94393.09;;;4.23;100.00
61128;BME280;47013;42.664;23.242;2024-01-27T06:30:22;94375.50;;;4.26;100.00
61128;BME280;47013;42.664;23.242;2024-01-27T06:32:48;94394.03;;;4.31;100.00
61128;BME280;47013;42.664;23.242;2024-01-27T06:35:13;94395.47;;;4.28;99.61
61128;BME280;47013;42.664;23.242;2024-01-27T06:37:39;94401.56;;;4.25;99.29
61128;BME280;47013;42.664;23.242;2024-01-27T06:40:05;94404.03;;;4.34;99.42
61128;BME280;47013;42.664;23.242;2024-01-27T06:42:31;94421.56;;;4.47;100.00
61128;BME280;47013;42.664;23.242;2024-01-27T06:44:56;94423.88;;;4.49;98.80
61128;BME280;47013;42.664;23.242;2024-01-27T06:47:21;94427.97;;;4.42;97.25
61128;BME280;47013;42.664;23.242;2024-01-27T06:49:47;94441.28;;;4.35;97.47
61128;BME280;47013;42.664;23.242;2024-01-27T06:52:12;94438.09;;;4.30;97.83
61128;BME280;47013;42.664;23.242;2024-01-27T06:54:37;94444.94;;;4.27;97.18
61128;BME280;47013;42.664;23.242;2024-01-27T06:57:06;94440.13;;;4.17;98.10
61128;BME280;47013;42.664;23.242;2024-01-27T06:59:31;94432.00;;;4.13;97.03
61128;BME280;47013;42.664;23.242;2024-01-27T07:01:57;94430.22;;;4.02;96.86
61128;BME280;47013;42.664;23.242;2024-01-27T07:04:23;94418.34;;;4.03;97.31
61128;BME280;47013;42.664;23.242;2024-01-27T07:06:48;94428.19;;;4.14;96.19
61128;BME280;47013;42.664;23.242;2024-01-27T07:09:13;94432.16;;;4.21;95.21
61128;BME280;47013;42.664;23.242;2024-01-27T07:11:39;94440.28;;;4.24;94.49
61128;BME280;47013;42.664;23.242;2024-01-27T07:14:04;94430.31;;;4.25;94.42
61128;BME280;47013;42.664;23.242;2024-01-27T07:16:30;94444.16;;;4.27;94.48
61128;BME280;47013;42.664;23.242;2024-01-27T07:18:55;94451.16;;;4.31;94.20
61128;BME280;47013;42.664;23.242;2024-01-27T07:21:20;94451.59;;;4.33;93.34
61128;BME280;47013;42.664;23.242;2024-01-27T07:23:46;94457.31;;;4.32;92.50
61128;BME280;47013;42.664;23.242;2024-01-27T07:26:11;94463.03;;;4.30;91.82
61128;BME280;47013;42.664;23.242;2024-01-27T07:28:38;94470.31;;;4.30;89.96
61128;BME280;47013;42.664;23.242;2024-01-27T07:31:04;94465.84;;;4.18;89.37
61128;BME280;47013;42.664;23.242;2024-01-27T07:33:30;94498.97;;;4.26;88.71
61128;BME280;47013;42.664;23.242;2024-01-27T07:35:56;94518.03;;;4.21;88.35
61128;BME280;47013;42.664;23.242;2024-01-27T07:38:22;94529.63;;;4.25;88.18
61128;BME280;47013;42.664;23.242;2024-01-27T07:40:47;94548.84;;;4.27;88.29
61128;BME280;47013;42.664;23.242;2024-01-27T07:43:12;94547.56;;;4.21;88.45
61128;BME280;47013;42.664;23.242;2024-01-27T07:45:38;94551.25;;;4.32;89.58
61128;BME280;47013;42.664;23.242;2024-01-27T07:48:04;94571.09;;;4.27;87.42
61128;BME280;47013;42.664;23.242;2024-01-27T07:50:29;94572.22;;;4.26;88.17
61128;BME280;47013;42.664;23.242;2024-01-27T07:52:55;94567.19;;;4.25;89.58
61128;BME280;47013;42.664;23.242;2024-01-27T07:55:20;94567.22;;;4.60;97.96
61128;BME280;47013;42.664;23.242;2024-01-27T07:57:45;94540.13;;;4.49;86.50
61128;BME280;47013;42.664;23.242;2024-01-27T08:00:11;94557.13;;;4.37;87.25
61128;BME280;47013;42.664;23.242;2024-01-27T08:02:36;94554.91;;;4.24;87.05
61128;BME280;47013;42.664;23.242;2024-01-27T08:05:05;94558.66;;;4.19;87.16
61128;BME280;47013;42.664;23.242;2024-01-27T08:07:31;94558.53;;;4.15;87.12
61128;BME280;47013;42.664;23.242;2024-01-27T08:09:57;94559.31;;;4.16;86.50
61128;BME280;47013;42.664;23.242;2024-01-27T08:12:22;94567.72;;;4.14;86.55
61128;BME280;47013;42.664;23.242;2024-01-27T08:14:48;94569.22;;;4.12;86.16
61128;BME280;47013;42.664;23.242;2024-01-27T08:17:13;94580.53;;;4.21;84.66
61128;BME280;47013;42.664;23.242;2024-01-27T08:19:39;94581.75;;;4.24;85.04
61128;BME280;47013;42.664;23.242;2024-01-27T08:22:05;94577.34;;;4.31;82.61
61128;BME280;47013;42.664;23.242;2024-01-27T08:24:30;94545.47;;;4.30;81.83
61128;BME280;47013;42.664;23.242;2024-01-27T08:26:57;94559.53;;;4.42;81.39
61128;BME280;47013;42.664;23.242;2024-01-27T08:29:23;94562.75;;;4.48;80.71
61128;BME280;47013;42.664;23.242;2024-01-27T08:31:49;94580.44;;;4.33;82.06
61128;BME280;47013;42.664;23.242;2024-01-27T08:34:14;94579.47;;;4.41;81.90
61128;BME280;47013;42.664;23.242;2024-01-27T08:36:40;94561.00;;;4.40;82.18
61128;BME280;47013;42.664;23.242;2024-01-27T08:39:05;94545.25;;;4.38;81.82
61128;BME280;47013;42.664;23.242;2024-01-27T08:41:33;94558.31;;;4.40;82.94
61128;BME280;47013;42.664;23.242;2024-01-27T08:43:59;94549.50;;;4.39;83.01
61128;BME280;47013;42.664;23.242;2024-01-27T08:46:24;94540.00;;;4.26;82.69
61128;BME280;47013;42.664;23.242;2024-01-27T08:48:50;94545.53;;;4.33;83.94
61128;BME280;47013;42.664;23.242;2024-01-27T08:51:15;94541.44;;;4.39;83.71
61128;BME280;47013;42.664;23.242;2024-01-27T08:53:42;94546.09;;;4.42;83.61
61128;BME280;47013;42.664;23.242;2024-01-27T08:56:16;94547.75;;;4.47;82.41
61128;BME280;47013;42.664;23.242;2024-01-27T08:58:46;94538.03;;;4.58;82.08
61128;BME280;47013;42.664;23.242;2024-01-27T09:01:18;94530.25;;;4.92;84.63
61128;BME280;47013;42.664;23.242;2024-01-27T09:03:44;94547.41;;;5.07;80.19
61128;BME280;47013;42.664;23.242;2024-01-27T09:06:09;94549.41;;;5.10;80.09
61128;BME280;47013;42.664;23.242;2024-01-27T09:08:35;94539.06;;;4.92;79.22
61128;BME280;47013;42.664;23.242;2024-01-27T09:11:02;94567.03;;;4.88;79.48
61128;BME280;47013;42.664;23.242;2024-01-27T09:13:27;94567.56;;;4.78;80.04
61128;BME280;47013;42.664;23.242;2024-01-27T09:15:53;94567.78;;;4.69;80.27
61128;BME280;47013;42.664;23.242;2024-01-27T09:18:18;94564.34;;;4.53;81.56
61128;BME280;47013;42.664;23.242;2024-01-27T09:20:44;94553.34;;;4.58;82.00
61128;BME280;47013;42.664;23.242;2024-01-27T09:23:09;94566.44;;;4.59;81.67
61128;BME280;47013;42.664;23.242;2024-01-27T09:25:34;94554.97;;;4.62;81.21
61128;BME280;47013;42.664;23.242;2024-01-27T09:28:00;94538.81;;;4.59;81.23
61128;BME280;47013;42.664;23.242;2024-01-27T09:30:26;94548.06;;;4.61;81.07
61128;BME280;47013;42.664;23.242;2024-01-27T09:32:52;94537.44;;;4.68;81.97
61128;BME280;47013;42.664;23.242;2024-01-27T09:35:17;94524.59;;;4.78;80.70
61128;BME280;47013;42.664;23.242;2024-01-27T09:37:43;94520.50;;;4.84;81.30
61128;BME280;47013;42.664;23.242;2024-01-27T09:40:11;94509.53;;;4.92;79.56
61128;BME280;47013;42.664;23.242;2024-01-27T09:42:37;94513.13;;;5.00;79.08
61128;BME280;47013;42.664;23.242;2024-01-27T09:45:08;94504.84;;;4.89;80.85
61128;BME280;47013;42.664;23.242;2024-01-27T09:47:35;94522.53;;;4.90;80.05
61128;BME280;47013;42.664;23.242;2024-01-27T09:50:01;94519.72;;;4.83;79.96
61128;BME280;47013;42.664;23.242;2024-01-27T09:52:26;94521.75;;;4.90;81.08
61128;BME280;47013;42.664;23.242;2024-01-27T09:54:52;94522.25;;;4.76;81.14
61128;BME280;47013;42.664;23.242;2024-01-27T09:57:18;94530.63;;;4.71;80.20
61128;BME280;47013;42.664;23.242;2024-01-27T09:59:47;94550.19;;;4.71;80.91
61128;BME280;47013;42.664;23.242;2024-01-27T10:02:15;94569.97;;;4.63;81.17
61128;BME280;47013;42.664;23.242;2024-01-27T10:04:41;94568.19;;;4.52;82.35
61128;BME280;47013;42.664;23.242;2024-01-27T10:07:07;94578.31;;;4.42;82.54
61128;BME280;47013;42.664;23.242;2024-01-27T10:09:32;94581.81;;;4.43;82.75
61128;BME280;47013;42.664;23.242;2024-01-27T10:12:01;94579.03;;;4.39;84.43
61128;BME280;47013;42.664;23.242;2024-01-27T10:14:37;94574.44;;;4.40;81.68
61128;BME280;47013;42.664;23.242;2024-01-27T10:17:02;94586.94;;;4.32;83.79
61128;BME280;47013;42.664;23.242;2024-01-27T10:19:28;94585.50;;;4.19;82.97
61128;BME280;47013;42.664;23.242;2024-01-27T10:22:00;94574.34;;;4.17;82.86
61128;BME280;47013;42.664;23.242;2024-01-27T10:24:27;94580.56;;;4.05;84.78
61128;BME280;47013;42.664;23.242;2024-01-27T10:26:59;94584.47;;;4.08;84.07
61128;BME280;47013;42.664;23.242;2024-01-27T10:29:24;94594.00;;;4.05;84.11
61128;BME280;47013;42.664;23.242;2024-01-27T10:31:50;94602.38;;;4.04;84.57
61128;BME280;47013;42.664;23.242;2024-01-27T10:34:19;94605.75;;;4.01;84.32
61128;BME280;47013;42.664;23.242;2024-01-27T10:36:45;94615.47;;;4.05;84.24
61128;BME280;47013;42.664;23.242;2024-01-27T10:39:18;94612.41;;;4.07;84.35
61128;BME280;47013;42.664;23.242;2024-01-27T10:41:47;94614.47;;;4.13;83.11
61128;BME280;47013;42.664;23.242;2024-01-27T10:44:17;94621.41;;;4.14;83.76
61128;BME280;47013;42.664;23.242;2024-01-27T10:46:47;94619.59;;;4.03;84.49
61128;BME280;47013;42.664;23.242;2024-01-27T10:49:14;94634.13;;;4.02;83.13
61128;BME280;47013;42.664;23.242;2024-01-27T10:51:46;94630.06;;;4.08;83.17
61128;BME280;47013;42.664;23.242;2024-01-27T10:54:20;94623.16;;;4.07;84.29
61128;BME280;47013;42.664;23.242;2024-01-27T10:56:48;94634.59;;;4.04;84.02
61128;BME280;47013;42.664;23.242;2024-01-27T10:59:15;94635.19;;;3.97;85.01
61128;BME280;47013;42.664;23.242;2024-01-27T11:01:46;94638.56;;;3.94;84.94
61128;BME280;47013;42.664;23.242;2024-01-27T11:04:13;94639.00;;;3.96;85.42
61128;BME280;47013;42.664;23.242;2024-01-27T11:06:40;94633.63;;;3.96;85.76
61128;BME280;47013;42.664;23.242;2024-01-27T11:09:08;94626.00;;;3.98;84.56
61128;BME280;47013;42.664;23.242;2024-01-27T11:11:34;94652.47;;;4.00;86.11
61128;BME280;47013;42.664;23.242;2024-01-27T11:14:01;94634.84;;;3.99;85.57
61128;BME280;47013;42.664;23.242;2024-01-27T11:16:26;94642.88;;;3.99;85.52
61128;BME280;47013;42.664;23.242;2024-01-27T11:18:54;94630.16;;;3.96;86.43
61128;BME280;47013;42.664;23.242;2024-01-27T11:21:19;94637.78;;;3.94;86.40
61128;BME280;47013;42.664;23.242;2024-01-27T11:23:45;94634.91;;;3.87;87.05
61128;BME280;47013;42.664;23.242;2024-01-27T11:26:18;94638.03;;;3.89;87.15
61128;BME280;47013;42.664;23.242;2024-01-27T11:28:44;94637.09;;;3.81;87.47
61128;BME280;47013;42.664;23.242;2024-01-27T11:31:10;94621.91;;;3.73;88.00
61128;BME280;47013;42.664;23.242;2024-01-27T11:33:43;94627.38;;;3.76;87.42
61128;BME280;47013;42.664;23.242;2024-01-27T11:36:18;94636.47;;;3.72;87.26
61128;BME280;47013;42.664;23.242;2024-01-27T11:38:44;94634.81;;;3.67;87.78
61128;BME280;47013;42.664;23.242;2024-01-27T11:41:10;94641.31;;;3.66;87.88
61128;BME280;47013;42.664;23.242;2024-01-27T11:43:35;94634.69;;;3.64;87.41
61128;BME280;47013;42.664;23.242;2024-01-27T11:46:01;94635.06;;;3.62;86.99
61128;BME280;47013;42.664;23.242;2024-01-27T11:48:27;94642.50;;;3.69;85.81
61128;BME280;47013;42.664;23.242;2024-01-27T11:51:05;94640.59;;;3.69;85.92
61128;BME280;47013;42.664;23.242;2024-01-27T11:53:31;94647.63;;;3.74;85.74
61128;BME280;47013;42.664;23.242;2024-01-27T11:55:57;94643.22;;;3.81;85.36
61128;BME280;47013;42.664;23.242;2024-01-27T11:58:22;94659.41;;;3.85;86.73
61128;BME280;47013;42.664;23.242;2024-01-27T12:00:48;94654.91;;;3.89;85.47
61128;BME280;47013;42.664;23.242;2024-01-27T12:03:13;94663.41;;;3.91;85.83
61128;BME280;47013;42.664;23.242;2024-01-27T12:05:39;94658.63;;;3.84;85.75
61128;BME280;47013;42.664;23.242;2024-01-27T12:08:07;94671.44;;;3.91;85.15
61128;BME280;47013;42.664;23.242;2024-01-27T12:10:33;94662.78;;;3.98;85.53
61128;BME280;47013;42.664;23.242;2024-01-27T12:12:59;94663.28;;;4.03;85.00
61128;BME280;47013;42.664;23.242;2024-01-27T12:15:25;94671.53;;;4.10;83.91
61128;BME280;47013;42.664;23.242;2024-01-27T12:17:52;94666.16;;;4.10;83.72
61128;BME280;47013;42.664;23.242;2024-01-27T12:20:17;94674.06;;;4.19;81.96
61128;BME280;47013;42.664;23.242;2024-01-27T12:22:43;94672.47;;;4.50;80.92
61128;BME280;47013;42.664;23.242;2024-01-27T12:25:10;94667.28;;;4.57;79.46
61128;BME280;47013;42.664;23.242;2024-01-27T12:27:36;94666.59;;;4.60;78.69
61128;BME280;47013;42.664;23.242;2024-01-27T12:30:02;94661.22;;;4.60;78.75
61128;BME280;47013;42.664;23.242;2024-01-27T12:32:27;94655.91;;;4.63;77.87
61128;BME280;47013;42.664;23.242;2024-01-27T12:34:53;94649.47;;;4.68;77.99
61128;BME280;47013;42.664;23.242;2024-01-27T12:37:21;94661.16;;;4.76;76.90
61128;BME280;47013;42.664;23.242;2024-01-27T12:39:47;94669.88;;;4.69;77.41
61128;BME280;47013;42.664;23.242;2024-01-27T12:42:16;94652.94;;;4.68;80.41
61128;BME280;47013;42.664;23.242;2024-01-27T12:44:42;94663.63;;;4.65;79.33
61128;BME280;47013;42.664;23.242;2024-01-27T12:47:11;94659.03;;;4.65;78.54
61128;BME280;47013;42.664;23.242;2024-01-27T12:49:38;94650.81;;;4.58;77.97
61128;BME280;47013;42.664;23.242;2024-01-27T12:52:04;94667.28;;;4.57;78.33
61128;BME280;47013;42.664;23.242;2024-01-27T12:54:31;94669.09;;;4.53;78.36